Hovedside
METAR-TAF:

METAR-TAF

Lufthavner :

Futuna, Frankrike

breddegrad: 14-19S, lengdegrad: 178-07W, høyde over havet: 6 m

METAR: fraværende

Tid: 14:49 (02:49 UTC)

Varsel

Denne rapporten ble laget for 3 timer og 49 minutter siden, klokken 23:00 UTC
Varsel gyldig fra 20. klokken 00 UTC til 20. klokken 24 UTC
Vind 12 kt fra Øst-nordøst
Sikt 10 km eller mer
Spredte skyer i en høyde av 1600 ft
Sannsynlighet 30% :
Midlertidig
fra 20. klokken 00 UTC til 20. klokken 06 UTC
Sikt: 4000 m
Brutte skyer i en høyde av 1400 ft
Få skyer i en høyde av 2000 ft, Bygeskyer.
regnbyger
Blir
fra 20. klokken 12 UTC til 20. klokken 15 UTC
Vind 14 kt fra Sørøst
Sannsynlighet 40% :
Midlertidig
fra 20. klokken 12 UTC til 20. klokken 18 UTC
Sikt: 4000 m
Brutte skyer i en høyde av 1200 ft
Få skyer i en høyde av 1800 ft, Bygeskyer.
regnbyger,

TAF: NLWF 192300Z 2000/2024 07012KT 9999 SCT016 PROB30 TEMPO 2000/2006 4000 SHRA BKN014 FEW020CB BECMG 2012/2015 14014KT PROB40 TEMPO 2012/2018 4000 SHRA BKN012 FEW018CB

Værobservasjoner og værvarsel for over 4000 flyplasser (METAR- og TAF-rapporter).

Tilgjengelige stasjoner er representert av de røde og gule prikkene på kartet.

Hold musepekeren over prikken for å se navnet på stasjonen.

Klikk så for å se værobservasjoner og -varsler.

For å forandre kartet kan du klikke på den grønne knappen med svart kryss for å zoome inn, på den grønne knappen med strek for å zoome ut, eller på de grønne pilene for å se tilstøtende kart.


METAR-TAF: